createdAt,value
2018-01-14T00:01:00.085Z,7.40
2018-01-14T00:03:28.567Z,8.40
2018-01-14T00:05:57.498Z,7.20
2018-01-14T00:08:25.671Z,7.10
2018-01-14T00:10:54.931Z,8.00
2018-01-14T00:13:24.015Z,6.57
2018-01-14T00:15:52.270Z,6.07
2018-01-14T00:18:21.239Z,6.07
2018-01-14T00:20:49.599Z,6.20
2018-01-14T00:23:17.961Z,7.20
2018-01-14T00:25:46.337Z,5.30
2018-01-14T00:28:15.427Z,7.20
2018-01-14T00:30:44.115Z,6.20
2018-01-14T00:33:12.789Z,6.70
2018-01-14T00:35:42.175Z,6.00
2018-01-14T00:38:11.369Z,7.13
2018-01-14T00:40:39.579Z,6.23
2018-01-14T00:43:07.841Z,6.70
2018-01-14T00:45:36.946Z,7.20
2018-01-14T00:48:05.157Z,6.80
2018-01-14T00:50:33.404Z,7.20
2018-01-14T00:53:01.686Z,6.53
2018-01-14T00:55:30.011Z,6.60
2018-01-14T00:57:58.385Z,6.60
2018-01-14T01:00:26.567Z,7.43
2018-01-14T01:02:55.006Z,6.10
2018-01-14T01:05:23.338Z,4.90
2018-01-14T01:07:51.931Z,5.30
2018-01-14T01:10:20.231Z,5.23
2018-01-14T01:12:49.680Z,5.20
2018-01-14T01:15:18.594Z,5.83
2018-01-14T01:17:48.797Z,6.17
2018-01-14T01:20:17.279Z,6.10
2018-01-14T01:22:45.857Z,6.77
2018-01-14T01:25:14.900Z,5.60
2018-01-14T01:27:43.190Z,6.37
2018-01-14T01:30:12.606Z,6.57
2018-01-14T01:32:41.393Z,6.67
2018-01-14T01:35:09.930Z,6.33
2018-01-14T01:37:38.393Z,6.10
2018-01-14T01:40:06.776Z,6.40
2018-01-14T01:42:35.348Z,6.23
2018-01-14T01:45:04.552Z,6.67
2018-01-14T01:47:32.926Z,6.97
2018-01-14T01:50:01.397Z,6.43
2018-01-14T01:52:29.682Z,7.00
2018-01-14T01:54:58.702Z,6.63
2018-01-14T01:57:26.989Z,6.63
2018-01-14T01:59:56.269Z,6.73
2018-01-14T02:02:24.558Z,7.40
2018-01-14T02:04:52.968Z,7.57
2018-01-14T02:07:21.411Z,7.47
2018-01-14T02:09:49.656Z,6.47
2018-01-14T02:12:18.774Z,6.87
2018-01-14T02:14:47.076Z,6.63
2018-01-14T02:17:15.392Z,6.53
2018-01-14T02:19:44.030Z,7.67
2018-01-14T02:22:13.127Z,6.80
2018-01-14T02:24:41.371Z,6.47
2018-01-14T02:27:09.644Z,7.10
2018-01-14T02:29:37.899Z,8.17
2018-01-14T02:32:06.957Z,6.30
2018-01-14T02:34:35.483Z,5.97
2018-01-14T02:37:05.098Z,7.80
2018-01-14T02:39:34.189Z,8.10
2018-01-14T02:42:02.376Z,7.77
2018-01-14T02:44:30.657Z,7.90
2018-01-14T02:46:58.822Z,8.40
2018-01-14T02:49:27.039Z,7.53
2018-01-14T02:51:55.180Z,6.40
2018-01-14T02:54:23.442Z,7.27
2018-01-14T02:56:52.661Z,5.90
2018-01-14T02:59:21.194Z,5.57
2018-01-14T03:01:50.607Z,6.53
2018-01-14T03:04:19.057Z,6.63
2018-01-14T03:06:48.342Z,6.77
2018-01-14T03:09:16.763Z,7.20
2018-01-14T03:11:45.356Z,6.17
2018-01-14T03:14:13.697Z,6.33
2018-01-14T03:16:42.210Z,6.93
2018-01-14T03:19:11.433Z,6.63
2018-01-14T03:21:40.388Z,7.00
2018-01-14T03:24:09.598Z,7.10
2018-01-14T03:26:37.849Z,7.03
2018-01-14T03:29:07.783Z,6.17
2018-01-14T03:31:36.496Z,6.50
2018-01-14T03:34:04.939Z,7.43
2018-01-14T03:36:33.178Z,6.90
2018-01-14T03:39:01.614Z,6.33
2018-01-14T03:41:30.313Z,6.70
2018-01-14T03:43:59.019Z,6.87
2018-01-14T03:46:28.817Z,6.37
2018-01-14T03:48:57.947Z,7.50
2018-01-14T03:51:26.938Z,6.93
2018-01-14T03:53:55.364Z,6.93
2018-01-14T03:56:23.647Z,6.70
2018-01-14T03:58:52.616Z,7.70
2018-01-14T04:01:20.799Z,6.77
2018-01-14T04:03:49.098Z,7.70
2018-01-14T04:06:17.337Z,6.80
2018-01-14T04:08:46.812Z,7.27
2018-01-14T04:11:15.357Z,6.93
2018-01-14T04:13:43.731Z,8.23
2018-01-14T04:16:12.261Z,7.30
2018-01-14T04:18:41.223Z,8.10
2018-01-14T04:21:10.570Z,7.30
2018-01-14T04:23:38.845Z,6.93
2018-01-14T04:26:07.387Z,7.97
2018-01-14T04:28:35.803Z,9.63
2018-01-14T04:31:04.126Z,9.23
2018-01-14T04:33:32.320Z,10.20
2018-01-14T04:36:01.624Z,9.67
2018-01-14T04:38:30.929Z,9.23
2018-01-14T04:40:59.163Z,8.43
2018-01-14T04:43:27.450Z,8.53
2018-01-14T04:45:55.726Z,9.10
2018-01-14T04:48:24.717Z,9.83
2018-01-14T04:50:53.124Z,9.50
2018-01-14T04:53:21.711Z,8.80
2018-01-14T04:55:50.132Z,8.63
2018-01-14T04:58:18.330Z,9.80
2018-01-14T05:00:46.695Z,8.57
2018-01-14T05:03:15.402Z,8.20
2018-01-14T05:05:44.067Z,8.50
2018-01-14T05:08:12.859Z,9.60
2018-01-14T05:10:42.056Z,8.33
2018-01-14T05:13:10.650Z,7.57
2018-01-14T05:15:38.879Z,8.47
2018-01-14T05:18:07.177Z,8.27
2018-01-14T05:20:36.412Z,8.63
2018-01-14T05:23:04.726Z,9.40
2018-01-14T05:25:32.970Z,8.77
2018-01-14T05:28:01.546Z,9.57
2018-01-14T05:30:30.114Z,8.20
2018-01-14T05:32:58.513Z,8.77
2018-01-14T05:35:27.570Z,8.40
2018-01-14T05:37:55.731Z,8.10
2018-01-14T05:40:24.178Z,7.63
2018-01-14T05:42:52.465Z,8.90
2018-01-14T05:45:21.419Z,8.50
2018-01-14T05:47:49.586Z,8.37
2018-01-14T05:50:17.802Z,9.13
2018-01-14T05:52:46.185Z,8.90
2018-01-14T05:55:16.698Z,8.20
2018-01-14T05:57:45.127Z,7.23
2018-01-14T06:00:13.417Z,9.30
2018-01-14T06:02:41.758Z,8.20
2018-01-14T06:05:10.746Z,8.23
2018-01-14T06:07:39.899Z,8.50
2018-01-14T06:10:08.290Z,8.80
2018-01-14T06:12:36.547Z,8.17
2018-01-14T06:15:05.892Z,9.67
2018-01-14T06:17:34.085Z,9.63
2018-01-14T06:20:02.991Z,7.47
2018-01-14T06:22:31.941Z,7.70
2018-01-14T06:25:01.055Z,8.40
2018-01-14T06:27:29.639Z,8.23
2018-01-14T06:29:58.874Z,8.87
2018-01-14T06:32:27.842Z,8.70
2018-01-14T06:34:56.798Z,8.57
2018-01-14T06:37:25.057Z,9.20
2018-01-14T06:39:54.025Z,8.90
2018-01-14T06:42:22.290Z,9.27
2018-01-14T06:44:51.307Z,9.80
2018-01-14T06:47:19.505Z,8.13
2018-01-14T06:49:48.544Z,8.30
2018-01-14T06:52:17.319Z,8.80
2018-01-14T06:54:45.531Z,8.70
2018-01-14T06:57:13.998Z,9.20
2018-01-14T06:59:42.207Z,8.83
2018-01-14T07:02:11.528Z,9.90
2018-01-14T07:04:39.907Z,8.80
2018-01-14T07:07:08.129Z,8.73
2018-01-14T07:09:36.343Z,9.37
2018-01-14T07:12:05.667Z,8.73
2018-01-14T07:14:34.306Z,8.47
2018-01-14T07:17:02.857Z,8.63
2018-01-14T07:19:31.075Z,9.07
2018-01-14T07:22:00.369Z,8.43
2018-01-14T07:24:29.309Z,8.83
2018-01-14T07:26:57.838Z,9.10
2018-01-14T07:29:26.743Z,8.77
2018-01-14T07:31:55.133Z,9.13
2018-01-14T07:34:23.590Z,8.47
2018-01-14T07:36:51.915Z,8.93
2018-01-14T07:39:20.120Z,8.93
2018-01-14T07:41:48.332Z,8.57
2018-01-14T07:44:17.285Z,9.00
2018-01-14T07:46:45.592Z,9.63
2018-01-14T07:49:13.755Z,8.90
2018-01-14T07:51:41.990Z,9.57
2018-01-14T07:54:10.337Z,9.53
2018-01-14T07:56:39.225Z,9.50
2018-01-14T07:59:08.206Z,9.93
2018-01-14T08:01:36.423Z,9.10
2018-01-14T08:04:05.325Z,8.20
2018-01-14T08:06:34.240Z,9.20
2018-01-14T08:09:02.665Z,9.50
2018-01-14T08:11:31.901Z,9.23
2018-01-14T08:14:01.172Z,8.47
2018-01-14T08:16:29.483Z,9.27
2018-01-14T08:18:57.881Z,8.90
2018-01-14T08:21:26.411Z,9.00
2018-01-14T08:23:54.601Z,9.00
2018-01-14T08:26:22.990Z,8.67
2018-01-14T08:28:52.148Z,9.40
2018-01-14T08:31:20.634Z,9.50
2018-01-14T08:33:48.832Z,8.27
2018-01-14T08:36:16.992Z,7.23
2018-01-14T08:38:45.330Z,8.30
2018-01-14T08:41:13.585Z,9.40
2018-01-14T08:43:42.676Z,8.07
2018-01-14T08:46:11.214Z,8.10
2018-01-14T08:48:39.421Z,7.83
2018-01-14T08:51:08.391Z,8.60
2018-01-14T08:53:38.544Z,8.60
2018-01-14T08:56:07.075Z,9.20
2018-01-14T08:58:35.697Z,8.70
2018-01-14T09:01:03.864Z,9.17
2018-01-14T09:03:32.028Z,8.20
2018-01-14T09:06:00.280Z,8.33
2018-01-14T09:08:28.544Z,8.43
2018-01-14T09:10:57.812Z,8.47
2018-01-14T09:13:27.019Z,9.40
2018-01-14T09:15:55.608Z,7.83
2018-01-14T09:18:24.475Z,8.20
2018-01-14T09:20:53.074Z,8.43
2018-01-14T09:23:21.666Z,8.60
2018-01-14T09:25:49.916Z,10.00
2018-01-14T09:28:18.259Z,8.70
2018-01-14T09:30:46.704Z,8.20
2018-01-14T09:33:15.670Z,8.10
2018-01-14T09:35:43.807Z,9.70
2018-01-14T09:38:12.264Z,8.57
2018-01-14T09:40:40.437Z,8.73
2018-01-14T09:43:09.633Z,9.50
2018-01-14T09:45:37.923Z,8.97
2018-01-14T09:48:06.898Z,7.90
2018-01-14T09:50:35.850Z,8.27
2018-01-14T09:53:04.057Z,9.20
2018-01-14T09:55:32.322Z,7.80
2018-01-14T09:58:00.593Z,9.40
2018-01-14T10:00:28.778Z,7.43
2018-01-14T10:02:57.291Z,7.90
2018-01-14T10:05:25.896Z,8.43
2018-01-14T10:07:54.137Z,9.20
2018-01-14T10:10:22.634Z,8.87
2018-01-14T10:12:51.128Z,7.73
2018-01-14T10:15:19.824Z,8.50
2018-01-14T10:17:48.771Z,8.73
2018-01-14T10:20:16.938Z,8.10
2018-01-14T10:22:45.769Z,8.20
2018-01-14T10:25:14.415Z,8.33
2018-01-14T10:27:42.604Z,8.50
2018-01-14T10:30:11.451Z,8.00
2018-01-14T10:32:40.001Z,9.83
2018-01-14T10:35:09.211Z,8.20
2018-01-14T10:37:38.190Z,7.60
2018-01-14T10:40:07.352Z,8.30
2018-01-14T10:42:36.231Z,7.50
2018-01-14T10:45:04.740Z,7.90
2018-01-14T10:47:33.477Z,8.80
2018-01-14T10:50:02.092Z,8.73
2018-01-14T10:52:30.638Z,8.70
2018-01-14T10:54:59.394Z,9.27
2018-01-14T10:57:27.907Z,8.90
2018-01-14T10:59:56.172Z,8.90
2018-01-14T11:02:25.404Z,8.60
2018-01-14T11:04:54.344Z,8.57
2018-01-14T11:07:22.970Z,8.50
2018-01-14T11:09:51.222Z,8.80
2018-01-14T11:12:19.816Z,8.60
2018-01-14T11:14:48.009Z,8.17
2018-01-14T11:17:16.496Z,8.27
2018-01-14T11:19:44.825Z,9.10
2018-01-14T11:22:13.022Z,8.50
2018-01-14T11:24:42.054Z,8.80
2018-01-14T11:27:11.133Z,8.97
2018-01-14T11:29:39.332Z,9.23
2018-01-14T11:32:08.277Z,9.40
2018-01-14T11:34:36.609Z,8.63
2018-01-14T11:37:04.898Z,9.10
2018-01-14T11:39:33.094Z,9.47
2018-01-14T11:42:01.269Z,10.40
2018-01-14T11:44:29.605Z,11.23
2018-01-14T11:46:59.223Z,16.70
2018-01-14T11:49:28.007Z,23.63
2018-01-14T11:51:56.706Z,19.50
2018-01-14T11:54:25.902Z,20.67
2018-01-14T11:56:54.578Z,18.27
2018-01-14T11:59:23.532Z,18.83
2018-01-14T12:01:51.703Z,19.07
2018-01-14T12:04:20.033Z,18.10
2018-01-14T12:06:48.334Z,17.60
2018-01-14T12:09:16.568Z,17.20
2018-01-14T12:11:44.803Z,18.23
2018-01-14T12:14:13.060Z,16.57
2018-01-14T12:16:42.132Z,16.90
2018-01-14T12:19:10.451Z,14.03
2018-01-14T12:21:39.435Z,10.40
2018-01-14T12:24:07.650Z,9.10
2018-01-14T12:26:36.300Z,9.43
2018-01-14T12:29:04.860Z,6.13
2018-01-14T12:31:33.748Z,6.30
2018-01-14T12:34:01.928Z,8.33
2018-01-14T12:36:30.571Z,11.90
2018-01-14T12:38:59.628Z,12.10
2018-01-14T12:41:28.424Z,11.90
2018-01-14T12:43:57.188Z,9.33
2018-01-14T12:46:25.592Z,8.80
2018-01-14T12:48:53.856Z,10.00
2018-01-14T12:51:22.857Z,14.67
2018-01-14T12:53:51.117Z,9.80
2018-01-14T12:56:20.322Z,9.70
2018-01-14T12:58:49.511Z,9.37
2018-01-14T13:01:17.799Z,10.07
2018-01-14T13:03:46.546Z,10.50
2018-01-14T13:06:14.980Z,10.60
2018-01-14T13:08:43.488Z,9.47
2018-01-14T13:11:11.744Z,9.97
2018-01-14T13:13:39.933Z,8.20
2018-01-14T13:16:08.282Z,6.83
2018-01-14T13:18:36.767Z,7.20
2018-01-14T13:21:05.022Z,9.87
2018-01-14T13:23:34.742Z,8.97
2018-01-14T13:26:03.172Z,10.60
2018-01-14T13:28:31.388Z,10.60
2018-01-14T13:30:59.584Z,11.37
2018-01-14T13:33:28.573Z,11.00
2018-01-14T13:35:57.598Z,10.23
2018-01-14T13:38:26.594Z,8.80
2018-01-14T13:40:55.571Z,10.27
2018-01-14T13:43:24.659Z,8.30
2018-01-14T13:45:52.798Z,6.57
2018-01-14T13:48:21.024Z,8.20
2018-01-14T13:50:50.016Z,7.03
2018-01-14T13:53:18.435Z,8.57
2018-01-14T13:55:46.711Z,8.23
2018-01-14T13:58:15.991Z,6.97
2018-01-14T14:00:44.358Z,6.60
2018-01-14T14:03:14.445Z,6.90
2018-01-14T14:05:42.876Z,9.03
2018-01-14T14:08:11.333Z,7.00
2018-01-14T14:10:39.745Z,6.67
2018-01-14T14:13:16.029Z,7.63
2018-01-14T14:15:44.347Z,7.10
2018-01-14T14:18:12.981Z,7.43
2018-01-14T14:20:41.215Z,7.20
2018-01-14T14:23:09.506Z,8.10
2018-01-14T14:25:37.864Z,7.50
2018-01-14T14:28:07.031Z,8.20
2018-01-14T14:30:35.576Z,8.67
2018-01-14T14:33:03.846Z,7.40
2018-01-14T14:35:33.261Z,5.93
2018-01-14T14:38:01.699Z,6.30
2018-01-14T14:40:31.170Z,6.90
2018-01-14T14:42:59.735Z,7.80
2018-01-14T14:45:29.196Z,6.07
2018-01-14T14:47:57.572Z,5.83
2018-01-14T14:50:25.771Z,5.90
2018-01-14T14:52:54.010Z,7.00
2018-01-14T14:55:23.702Z,6.50
2018-01-14T14:57:52.753Z,7.00
2018-01-14T15:00:21.266Z,8.20
2018-01-14T15:02:49.795Z,7.57
2018-01-14T15:05:18.340Z,6.60
2018-01-14T15:07:46.545Z,7.13
2018-01-14T15:10:15.064Z,8.33
2018-01-14T15:12:43.498Z,8.63
2018-01-14T15:15:11.913Z,7.87
2018-01-14T15:17:40.545Z,8.23
2018-01-14T15:20:08.793Z,8.10
2018-01-14T15:22:38.211Z,8.57
2018-01-14T15:25:06.713Z,9.50
2018-01-14T15:27:34.926Z,8.27
2018-01-14T15:30:03.365Z,7.73
2018-01-14T15:32:32.111Z,8.00
2018-01-14T15:35:00.544Z,7.90
2018-01-14T15:37:28.841Z,7.60
2018-01-14T15:39:57.431Z,8.43
2018-01-14T15:42:26.191Z,8.33
2018-01-14T15:44:54.495Z,8.60
2018-01-14T15:47:23.895Z,9.20
2018-01-14T15:49:52.320Z,8.90
2018-01-14T15:52:20.554Z,9.43
2018-01-14T15:54:49.663Z,7.47
2018-01-14T15:57:17.980Z,7.50
2018-01-14T15:59:46.253Z,7.67
2018-01-14T16:02:14.886Z,8.60
2018-01-14T16:04:43.414Z,6.87
2018-01-14T16:07:14.929Z,8.50
2018-01-14T16:09:43.729Z,7.53
2018-01-14T16:12:12.947Z,9.37
2018-01-14T16:14:41.395Z,8.63
2018-01-14T16:17:09.800Z,7.40
2018-01-14T16:19:38.257Z,8.27
2018-01-14T16:22:06.543Z,8.00
2018-01-14T16:24:35.464Z,8.03
2018-01-14T16:27:03.666Z,8.50
2018-01-14T16:29:32.306Z,8.73
2018-01-14T16:32:01.239Z,6.70
2018-01-14T16:34:29.976Z,6.47
2018-01-14T16:36:58.899Z,6.77
2018-01-14T16:39:27.156Z,7.27
2018-01-14T16:41:56.462Z,8.10
2018-01-14T16:44:25.344Z,7.63
2018-01-14T16:46:54.576Z,8.73
2018-01-14T16:49:23.260Z,8.40
2018-01-14T16:51:52.260Z,8.83
2018-01-14T16:54:21.381Z,9.07
2018-01-14T16:56:51.108Z,9.63
2018-01-14T16:59:19.734Z,9.57
2018-01-14T17:01:48.223Z,6.73
2018-01-14T17:04:16.678Z,7.03
2018-01-14T17:06:45.038Z,6.20
2018-01-14T17:09:13.550Z,7.10
2018-01-14T17:11:42.432Z,7.33
2018-01-14T17:14:10.701Z,9.13
2018-01-14T17:16:38.944Z,8.97
2018-01-14T17:19:07.128Z,7.00
2018-01-14T17:21:35.559Z,6.07
2018-01-14T17:24:03.958Z,5.87
2018-01-14T17:26:32.982Z,7.50
2018-01-14T17:29:01.618Z,7.87
2018-01-14T17:31:30.132Z,6.13
2018-01-14T17:33:58.582Z,6.87
2018-01-14T17:36:27.115Z,7.53
2018-01-14T17:38:55.652Z,8.83
2018-01-14T17:41:24.176Z,9.53
2018-01-14T17:43:53.639Z,8.40
2018-01-14T17:46:21.882Z,7.57
2018-01-14T17:48:50.409Z,8.47
2018-01-14T17:51:18.818Z,8.30
2018-01-14T17:53:47.761Z,10.40
2018-01-14T17:56:16.267Z,9.40
2018-01-14T17:58:44.947Z,8.70
2018-01-14T18:01:14.356Z,9.20
2018-01-14T18:03:43.044Z,8.10
2018-01-14T18:06:11.697Z,7.83
2018-01-14T18:08:39.951Z,9.20
2018-01-14T18:11:08.208Z,9.50
2018-01-14T18:13:36.883Z,7.30
2018-01-14T18:16:05.254Z,7.93
2018-01-14T18:18:33.400Z,7.83
2018-01-14T18:21:01.626Z,9.70
2018-01-14T18:23:29.923Z,8.57
2018-01-14T18:25:59.370Z,7.57
2018-01-14T18:28:27.614Z,8.73
2018-01-14T18:30:55.879Z,10.00
2018-01-14T18:33:24.203Z,9.00
2018-01-14T18:35:52.804Z,8.03
2018-01-14T18:38:22.327Z,8.73
2018-01-14T18:40:50.693Z,9.40
2018-01-14T18:43:18.924Z,9.53
2018-01-14T18:45:47.467Z,7.07
2018-01-14T18:48:16.463Z,8.90
2018-01-14T18:50:45.025Z,9.13
2018-01-14T18:53:13.733Z,9.00
2018-01-14T18:55:42.141Z,8.20
2018-01-14T18:58:10.452Z,7.30
2018-01-14T19:00:38.766Z,9.40
2018-01-14T19:03:07.439Z,9.00
2018-01-14T19:05:36.476Z,9.13
2018-01-14T19:08:04.677Z,9.37
2018-01-14T19:10:33.212Z,7.40
2018-01-14T19:13:01.647Z,7.27
2018-01-14T19:15:30.060Z,7.10
2018-01-14T19:17:58.304Z,8.87
2018-01-14T19:20:26.679Z,10.40
2018-01-14T19:22:55.001Z,10.03
2018-01-14T19:25:23.285Z,9.43
2018-01-14T19:27:52.685Z,8.23
2018-01-14T19:30:21.670Z,7.60
2018-01-14T19:32:51.157Z,8.73
2018-01-14T19:35:19.792Z,11.13
2018-01-14T19:37:48.431Z,9.93
2018-01-14T19:40:17.635Z,8.43
2018-01-14T19:42:46.239Z,9.40
2018-01-14T19:45:15.400Z,9.63
2018-01-14T19:47:43.582Z,9.20
2018-01-14T19:50:11.808Z,8.40
2018-01-14T19:52:40.808Z,9.80
2018-01-14T19:55:09.350Z,15.27
2018-01-14T19:57:37.648Z,16.07
2018-01-14T20:00:06.623Z,15.60
2018-01-14T20:02:35.079Z,16.37
2018-01-14T20:05:03.397Z,16.10
2018-01-14T20:07:31.890Z,19.17
2018-01-14T20:10:00.218Z,18.03
2018-01-14T20:12:29.217Z,17.47
2018-01-14T20:14:57.046Z,17.23
2018-01-14T20:17:24.566Z,17.60
2018-01-14T20:19:53.094Z,18.07
2018-01-14T20:22:20.467Z,17.43
2018-01-14T20:24:47.871Z,18.37
2018-01-14T20:27:15.325Z,17.97
2018-01-14T20:29:42.936Z,16.30
2018-01-14T20:32:10.458Z,17.87
2018-01-14T20:34:38.769Z,17.47
2018-01-14T20:37:06.264Z,17.17
2018-01-14T20:39:33.653Z,16.60
2018-01-14T20:42:02.042Z,16.70
2018-01-14T20:44:31.252Z,17.30
2018-01-14T20:46:58.797Z,15.63
2018-01-14T20:49:27.094Z,14.23
2018-01-14T20:51:54.542Z,16.60
2018-01-14T20:54:22.681Z,15.50
2018-01-14T20:56:50.173Z,14.63
2018-01-14T20:59:18.358Z,15.80
2018-01-14T21:01:46.037Z,14.47
2018-01-14T21:04:13.558Z,14.77
2018-01-14T21:06:42.143Z,15.60
2018-01-14T21:09:09.687Z,15.93
2018-01-14T21:11:37.306Z,14.57
2018-01-14T21:14:05.528Z,15.87
2018-01-14T21:16:32.979Z,14.70
2018-01-14T21:19:00.620Z,15.40
2018-01-14T21:21:28.076Z,16.37
2018-01-14T21:23:55.463Z,14.83
2018-01-14T21:26:23.571Z,15.43
2018-01-14T21:28:52.192Z,14.00
2018-01-14T21:31:19.773Z,15.03
2018-01-14T21:33:47.616Z,15.43
2018-01-14T21:36:15.128Z,15.40
2018-01-14T21:38:42.545Z,15.60
2018-01-14T21:41:10.101Z,15.67
2018-01-14T21:43:37.526Z,14.40
2018-01-14T21:46:05.683Z,14.87
2018-01-14T21:48:33.345Z,14.60
2018-01-14T21:51:01.544Z,15.20
2018-01-14T21:53:29.766Z,14.60
2018-01-14T21:55:57.184Z,14.77
2018-01-14T21:58:25.312Z,13.73
2018-01-14T22:00:52.716Z,14.23
2018-01-14T22:03:22.266Z,14.20
2018-01-14T22:05:49.701Z,14.63
2018-01-14T22:08:17.106Z,13.90
2018-01-14T22:10:45.585Z,12.73
2018-01-14T22:13:13.032Z,12.40
2018-01-14T22:15:40.489Z,13.73
2018-01-14T22:18:08.260Z,12.87
2018-01-14T22:20:36.094Z,12.67
2018-01-14T22:23:03.671Z,13.57
2018-01-14T22:25:31.176Z,13.20
2018-01-14T22:27:59.376Z,12.43
2018-01-14T22:30:27.967Z,12.37
2018-01-14T22:32:55.447Z,13.20
2018-01-14T22:35:23.101Z,12.20
2018-01-14T22:37:51.073Z,12.70
2018-01-14T22:40:19.650Z,11.50
2018-01-14T22:42:47.178Z,13.10
2018-01-14T22:45:15.349Z,10.93
2018-01-14T22:47:44.049Z,12.33
2018-01-14T22:50:12.257Z,12.67
2018-01-14T22:52:40.638Z,12.40
2018-01-14T22:55:08.226Z,11.20
2018-01-14T22:57:35.819Z,11.03
2018-01-14T23:00:03.357Z,11.20
2018-01-14T23:02:30.849Z,11.83
2018-01-14T23:04:58.354Z,10.80
2018-01-14T23:07:25.794Z,10.97
2018-01-14T23:09:53.681Z,10.20
2018-01-14T23:12:21.188Z,10.60
2018-01-14T23:14:49.392Z,10.60
2018-01-14T23:17:17.524Z,10.57
2018-01-14T23:19:45.005Z,11.87
2018-01-14T23:22:12.813Z,12.93
2018-01-14T23:24:40.487Z,11.60
2018-01-14T23:27:07.974Z,11.10
2018-01-14T23:29:35.702Z,11.80
2018-01-14T23:32:03.257Z,11.20
2018-01-14T23:34:30.928Z,11.00
2018-01-14T23:36:58.690Z,10.77
2018-01-14T23:39:26.148Z,11.23
2018-01-14T23:41:54.351Z,11.43
2018-01-14T23:44:21.764Z,11.10
2018-01-14T23:46:49.445Z,10.67
2018-01-14T23:49:17.086Z,12.13
2018-01-14T23:51:45.494Z,11.07
2018-01-14T23:54:13.036Z,12.00
2018-01-14T23:56:41.181Z,11.07
2018-01-14T23:59:08.909Z,12.23
